createdAt,value
2018-08-18T00:00:54.273Z,16.35
2018-08-18T00:03:25.089Z,16.31
2018-08-18T00:05:55.928Z,16.28
2018-08-18T00:08:26.699Z,16.21
2018-08-18T00:10:57.527Z,16.14
2018-08-18T00:13:28.255Z,16.09
2018-08-18T00:15:58.965Z,16.07
2018-08-18T00:18:29.706Z,16.06
2018-08-18T00:21:00.447Z,16.06
2018-08-18T00:23:31.098Z,16.04
2018-08-18T00:26:01.868Z,16.02
2018-08-18T00:28:32.572Z,16.06
2018-08-18T00:31:03.263Z,16.10
2018-08-18T00:33:33.885Z,16.15
2018-08-18T00:36:04.708Z,16.21
2018-08-18T00:38:35.352Z,16.23
2018-08-18T00:41:06.169Z,16.23
2018-08-18T00:43:36.822Z,16.14
2018-08-18T00:46:07.656Z,16.11
2018-08-18T00:48:38.379Z,16.05
2018-08-18T00:51:09.103Z,16.02
2018-08-18T00:53:39.937Z,16.03
2018-08-18T00:56:10.634Z,15.98
2018-08-18T00:58:52.240Z,15.94
2018-08-18T01:01:22.976Z,15.97
2018-08-18T01:03:55.151Z,15.89
2018-08-18T01:06:32.858Z,15.83
2018-08-18T01:09:05.335Z,15.85
2018-08-18T01:11:41.508Z,15.92
2018-08-18T01:14:21.577Z,15.96
2018-08-18T01:16:57.728Z,15.98
2018-08-18T01:19:33.789Z,16.03
2018-08-18T01:22:11.921Z,15.99
2018-08-18T01:24:48.429Z,15.91
2018-08-18T01:27:24.322Z,15.88
2018-08-18T01:30:04.155Z,15.88
2018-08-18T01:32:40.119Z,15.81
2018-08-18T01:35:16.253Z,15.79
2018-08-18T01:37:52.290Z,15.78
2018-08-18T01:40:28.353Z,15.78
2018-08-18T01:43:04.552Z,15.78
2018-08-18T01:45:40.732Z,15.76
2018-08-18T01:48:16.808Z,15.77
2018-08-18T01:50:53.134Z,15.76
2018-08-18T01:53:29.184Z,15.77
2018-08-18T01:56:05.232Z,15.88
2018-08-18T01:58:41.108Z,15.90
2018-08-18T02:01:17.185Z,15.92
2018-08-18T02:03:53.100Z,15.85
2018-08-18T02:06:29.172Z,15.81
2018-08-18T02:09:06.422Z,15.87
2018-08-18T02:11:43.053Z,15.91
2018-08-18T02:14:21.424Z,15.84
2018-08-18T02:17:14.121Z,15.81
2018-08-18T02:19:50.126Z,15.73
2018-08-18T02:22:26.747Z,15.72
2018-08-18T02:25:02.594Z,15.71
2018-08-18T02:27:39.116Z,15.63
2018-08-18T02:30:22.213Z,15.63
2018-08-18T02:32:58.233Z,15.64
2018-08-18T02:35:34.291Z,15.54
2018-08-18T02:38:10.311Z,15.49
2018-08-18T02:40:46.223Z,15.46
2018-08-18T02:43:25.117Z,15.43
2018-08-18T02:46:18.509Z,15.44
2018-08-18T02:48:54.574Z,15.46
2018-08-18T02:51:31.324Z,15.52
2018-08-18T02:54:07.417Z,15.51
2018-08-18T02:56:43.747Z,15.46
2018-08-18T02:59:19.778Z,15.37
2018-08-18T03:01:55.837Z,15.34
2018-08-18T03:04:35.809Z,15.32
2018-08-18T03:07:11.912Z,15.28
2018-08-18T03:09:48.029Z,15.26
2018-08-18T03:12:29.498Z,15.22
2018-08-18T03:15:05.409Z,15.20
2018-08-18T03:17:41.395Z,15.14
2018-08-18T03:20:17.463Z,15.08
2018-08-18T03:22:53.556Z,15.05
2018-08-18T03:25:44.714Z,15.01
2018-08-18T03:28:21.660Z,14.98
2018-08-18T03:30:57.703Z,14.99
2018-08-18T03:33:33.720Z,14.97
2018-08-18T03:36:25.662Z,14.98
2018-08-18T03:39:01.581Z,14.98
2018-08-18T03:41:37.711Z,14.98
2018-08-18T03:44:13.828Z,14.96
2018-08-18T03:46:49.928Z,14.98
2018-08-18T03:49:26.827Z,14.99
2018-08-18T03:52:03.234Z,14.99
2018-08-18T03:54:39.092Z,14.97
2018-08-18T03:57:15.152Z,14.95
2018-08-18T03:59:51.124Z,14.89
2018-08-18T04:02:27.928Z,14.88
2018-08-18T04:05:08.138Z,14.88
2018-08-18T04:07:47.082Z,14.88
2018-08-18T04:10:23.249Z,14.88
2018-08-18T04:13:01.013Z,14.85
2018-08-18T04:15:37.019Z,14.85
2018-08-18T04:18:16.422Z,14.82
2018-08-18T04:20:52.508Z,14.83
2018-08-18T04:23:28.392Z,14.83
2018-08-18T04:26:04.301Z,14.86
2018-08-18T04:28:40.237Z,14.88
2018-08-18T04:31:19.148Z,14.86
2018-08-18T04:33:55.060Z,14.84
2018-08-18T04:36:31.249Z,14.85
2018-08-18T04:39:14.749Z,14.85
2018-08-18T04:41:50.647Z,14.85
2018-08-18T04:44:57.536Z,14.90
2018-08-18T04:47:33.495Z,14.88
2018-08-18T04:50:09.432Z,14.90
2018-08-18T04:52:45.550Z,14.95
2018-08-18T04:55:22.041Z,14.95
2018-08-18T04:57:58.022Z,14.94
2018-08-18T05:00:34.039Z,14.96
2018-08-18T05:03:10.131Z,15.00
2018-08-18T05:05:46.221Z,14.99
2018-08-18T05:08:22.315Z,15.01
2018-08-18T05:10:58.327Z,15.06
2018-08-18T05:13:34.168Z,15.18
2018-08-18T05:16:10.196Z,15.31
2018-08-18T05:18:46.179Z,15.40
2018-08-18T05:21:23.276Z,15.48
2018-08-18T05:24:09.978Z,15.63
2018-08-18T05:26:45.851Z,15.81
2018-08-18T05:29:22.074Z,15.91
2018-08-18T05:31:58.093Z,16.00
2018-08-18T05:34:33.968Z,16.11
2018-08-18T05:37:09.857Z,16.18
2018-08-18T05:39:45.893Z,16.28
2018-08-18T05:42:22.049Z,16.37
2018-08-18T05:44:58.228Z,16.43
2018-08-18T05:47:34.075Z,16.53
2018-08-18T05:50:10.440Z,16.50
2018-08-18T05:52:46.395Z,16.43
2018-08-18T05:55:24.013Z,16.46
2018-08-18T05:58:00.054Z,16.47
2018-08-18T06:00:36.077Z,16.53
2018-08-18T06:03:15.628Z,16.59
2018-08-18T06:05:52.571Z,16.66
2018-08-18T06:08:28.667Z,16.71
2018-08-18T06:11:05.405Z,16.78
2018-08-18T06:13:41.502Z,16.86
2018-08-18T06:16:17.455Z,16.98
2018-08-18T06:18:53.773Z,17.17
2018-08-18T06:21:29.821Z,17.11
2018-08-18T06:24:05.883Z,16.94
2018-08-18T06:26:43.046Z,16.97
2018-08-18T06:29:18.913Z,17.00
2018-08-18T06:32:02.520Z,17.07
2018-08-18T06:34:39.642Z,17.13
2018-08-18T06:37:15.988Z,17.21
2018-08-18T06:39:57.681Z,17.20
2018-08-18T06:42:45.122Z,17.35
2018-08-18T06:45:21.469Z,17.41
2018-08-18T06:50:57.333Z,17.44
2018-08-18T06:53:38.683Z,17.57
2018-08-18T06:56:14.602Z,17.75
2018-08-18T06:58:51.432Z,18.02
2018-08-18T07:01:27.377Z,18.14
2018-08-18T07:04:03.550Z,18.27
2018-08-18T07:06:39.773Z,18.51
2018-08-18T07:09:15.898Z,18.60
2018-08-18T07:11:52.070Z,18.64
2018-08-18T07:14:28.053Z,18.60
2018-08-18T07:17:03.984Z,18.61
2018-08-18T07:19:39.889Z,18.71
2018-08-18T07:22:19.745Z,18.84
2018-08-18T07:24:55.561Z,18.98
2018-08-18T07:27:31.582Z,19.12
2018-08-18T07:30:08.452Z,19.39
2018-08-18T07:32:44.468Z,19.41
2018-08-18T07:35:20.463Z,19.72
2018-08-18T07:37:56.435Z,19.85
2018-08-18T07:40:41.538Z,20.14
2018-08-18T07:43:20.864Z,20.33
2018-08-18T07:45:58.200Z,20.40
2018-08-18T07:48:34.146Z,20.36
2018-08-18T07:51:10.181Z,20.56
2018-08-18T07:53:45.988Z,20.87
2018-08-18T07:56:21.923Z,20.89
2018-08-18T07:58:57.771Z,20.96
2018-08-18T08:01:33.687Z,20.85
2018-08-18T08:04:09.680Z,21.11
2018-08-18T08:06:45.800Z,21.40
2018-08-18T08:09:21.520Z,21.70
2018-08-18T08:11:57.428Z,22.01
2018-08-18T08:14:33.385Z,22.40
2018-08-18T08:17:09.765Z,22.69
2018-08-18T08:19:46.033Z,22.96
2018-08-18T08:22:21.973Z,23.22
2018-08-18T08:24:57.852Z,23.38
2018-08-18T08:27:33.776Z,23.59
2018-08-18T08:30:11.840Z,23.44
2018-08-18T08:32:48.122Z,23.64
2018-08-18T08:35:24.084Z,23.63
2018-08-18T08:38:00.155Z,23.39
2018-08-18T08:40:36.279Z,23.20
2018-08-18T08:43:28.852Z,23.09
2018-08-18T08:46:04.852Z,23.45
2018-08-18T08:48:40.679Z,24.00
2018-08-18T08:51:16.695Z,24.41
2018-08-18T08:53:55.228Z,24.73
2018-08-18T08:56:38.990Z,24.79
2018-08-18T08:59:14.905Z,24.84
2018-08-18T09:01:51.111Z,25.04
2018-08-18T09:04:26.960Z,24.92
2018-08-18T09:07:05.020Z,24.80
2018-08-18T09:09:41.065Z,24.75
2018-08-18T09:12:17.044Z,24.74
2018-08-18T09:14:53.824Z,24.37
2018-08-18T09:17:29.789Z,24.42
2018-08-18T09:20:08.035Z,24.76
2018-08-18T09:23:02.022Z,25.27
2018-08-18T09:25:38.022Z,25.09
2018-08-18T09:28:13.958Z,25.48
2018-08-18T09:30:49.834Z,25.79
2018-08-18T09:33:25.788Z,26.17
2018-08-18T09:36:05.064Z,26.40
2018-08-18T09:38:40.898Z,26.64
2018-08-18T09:41:17.020Z,26.96
2018-08-18T09:43:52.815Z,26.62
2018-08-18T09:46:28.851Z,26.68
2018-08-18T09:49:04.826Z,27.10
2018-08-18T09:51:40.647Z,27.24
2018-08-18T09:54:16.747Z,27.09
2018-08-18T09:56:52.643Z,27.29
2018-08-18T09:59:29.313Z,27.12
2018-08-18T10:02:05.868Z,26.89
2018-08-18T10:04:41.920Z,26.59
2018-08-18T10:07:17.986Z,26.80
2018-08-18T10:09:53.927Z,27.01
2018-08-18T10:12:29.876Z,27.29
2018-08-18T10:15:05.858Z,27.36
2018-08-18T10:17:41.904Z,26.87
2018-08-18T10:20:18.117Z,26.51
2018-08-18T10:22:54.208Z,25.95
2018-08-18T10:25:30.045Z,25.80
2018-08-18T10:28:06.336Z,25.44
2018-08-18T10:30:42.294Z,25.29
2018-08-18T10:33:18.254Z,25.21
2018-08-18T10:35:54.161Z,25.39
2018-08-18T10:38:30.208Z,25.96
2018-08-18T10:41:06.416Z,26.60
2018-08-18T10:43:42.381Z,26.96
2018-08-18T10:46:18.387Z,26.83
2018-08-18T10:48:54.267Z,27.10
2018-08-18T10:51:47.093Z,27.54
2018-08-18T10:54:22.879Z,27.56
2018-08-18T10:56:58.951Z,27.55
2018-08-18T10:59:50.753Z,27.28
2018-08-18T11:02:35.603Z,26.90
2018-08-18T11:05:11.553Z,27.21
2018-08-18T11:07:55.134Z,27.33
2018-08-18T11:10:32.877Z,27.45
2018-08-18T11:13:08.843Z,27.67
2018-08-18T11:15:45.793Z,26.99
2018-08-18T11:18:21.899Z,27.22
2018-08-18T11:20:57.922Z,27.23
2018-08-18T11:23:33.892Z,27.74
2018-08-18T11:26:09.849Z,28.11
2018-08-18T11:28:45.954Z,28.48
2018-08-18T11:31:21.620Z,28.44
2018-08-18T11:33:57.707Z,28.42
2018-08-18T11:36:33.596Z,27.79
2018-08-18T11:39:09.740Z,27.29
2018-08-18T11:41:45.785Z,27.17
2018-08-18T11:44:21.661Z,27.29
2018-08-18T11:46:57.699Z,26.79
2018-08-18T11:49:33.731Z,26.80
2018-08-18T11:52:09.548Z,27.06
2018-08-18T11:54:45.402Z,27.41
2018-08-18T11:57:21.199Z,27.95
2018-08-18T11:59:57.047Z,28.14
2018-08-18T12:02:33.061Z,28.57
2018-08-18T12:05:09.085Z,28.91
2018-08-18T12:07:44.990Z,29.26
2018-08-18T12:10:20.889Z,29.20
2018-08-18T12:12:56.836Z,29.38
2018-08-18T12:15:33.532Z,29.05
2018-08-18T12:18:09.570Z,29.36
2018-08-18T12:20:45.486Z,29.62
2018-08-18T12:23:21.487Z,29.35
2018-08-18T12:26:02.759Z,28.74
2018-08-18T12:28:42.917Z,28.90
2018-08-18T12:31:20.405Z,29.17
2018-08-18T12:33:56.399Z,29.46
2018-08-18T12:36:32.351Z,29.63
2018-08-18T12:39:08.515Z,29.77
2018-08-18T12:41:44.437Z,29.40
2018-08-18T12:44:24.464Z,28.71
2018-08-18T12:47:03.672Z,28.34
2018-08-18T12:49:39.641Z,28.20
2018-08-18T12:55:21.875Z,28.67
2018-08-18T12:57:57.898Z,29.08
2018-08-18T13:00:33.716Z,29.46
2018-08-18T13:03:09.694Z,29.77
2018-08-18T13:05:45.607Z,29.70
2018-08-18T13:08:21.741Z,29.84
2018-08-18T13:10:57.802Z,30.21
2018-08-18T13:13:33.806Z,30.12
2018-08-18T13:16:09.844Z,29.99
2018-08-18T13:18:45.747Z,30.23
2018-08-18T13:21:21.840Z,30.56
2018-08-18T13:23:59.799Z,30.67
2018-08-18T13:26:35.692Z,30.83
2018-08-18T13:29:11.548Z,30.91
2018-08-18T13:31:47.382Z,30.79
2018-08-18T13:34:23.145Z,30.73
2018-08-18T13:36:58.943Z,30.43
2018-08-18T13:39:34.957Z,30.57
2018-08-18T13:42:24.966Z,30.35
2018-08-18T13:45:00.820Z,30.28
2018-08-18T13:47:36.809Z,29.78
2018-08-18T13:50:15.519Z,30.10
2018-08-18T13:52:51.681Z,30.15
2018-08-18T13:55:47.931Z,29.95
2018-08-18T13:58:23.774Z,30.08
2018-08-18T14:00:59.791Z,29.44
2018-08-18T14:03:35.746Z,29.39
2018-08-18T14:06:11.623Z,29.07
2018-08-18T14:08:51.547Z,28.91
2018-08-18T14:11:27.375Z,28.91
2018-08-18T14:14:03.452Z,28.90
2018-08-18T14:16:39.355Z,28.20
2018-08-18T14:19:15.159Z,28.37
2018-08-18T14:21:55.619Z,28.52
2018-08-18T14:24:35.098Z,29.07
2018-08-18T14:27:15.408Z,29.08
2018-08-18T14:29:51.133Z,29.12
2018-08-18T14:32:27.855Z,29.09
2018-08-18T14:35:06.478Z,28.95
2018-08-18T14:37:43.131Z,29.14
2018-08-18T14:40:19.556Z,29.44
2018-08-18T14:42:55.369Z,28.79
2018-08-18T14:45:31.267Z,29.08
2018-08-18T14:48:07.196Z,29.11
2018-08-18T14:50:43.032Z,28.62
2018-08-18T14:53:25.812Z,28.30
2018-08-18T14:56:01.552Z,28.22
2018-08-18T14:58:37.811Z,28.27
2018-08-18T15:01:14.544Z,28.66
2018-08-18T15:03:50.640Z,28.83
2018-08-18T15:06:26.707Z,29.07
2018-08-18T15:09:02.585Z,28.81
2018-08-18T15:11:38.562Z,28.75
2018-08-18T15:14:14.419Z,28.97
2018-08-18T15:16:50.414Z,29.03
2018-08-18T15:19:26.448Z,28.69
2018-08-18T15:22:06.427Z,28.49
2018-08-18T15:24:42.219Z,28.51
2018-08-18T15:27:18.051Z,28.61
2018-08-18T15:29:54.098Z,28.66
2018-08-18T15:32:30.085Z,28.77
2018-08-18T15:35:06.117Z,28.69
2018-08-18T15:37:41.975Z,28.50
2018-08-18T15:40:18.093Z,28.02
2018-08-18T15:42:54.135Z,27.67
2018-08-18T15:45:30.646Z,27.41
2018-08-18T15:48:06.746Z,26.80
2018-08-18T15:50:42.719Z,26.86
2018-08-18T15:53:18.582Z,26.73
2018-08-18T15:55:54.528Z,26.65
2018-08-18T15:58:30.503Z,26.61
2018-08-18T16:01:06.815Z,26.66
2018-08-18T16:03:42.630Z,26.71
2018-08-18T16:06:18.716Z,26.72
2018-08-18T16:08:54.863Z,26.41
2018-08-18T16:11:30.929Z,26.41
2018-08-18T16:14:07.056Z,26.27
2018-08-18T16:17:01.024Z,26.10
2018-08-18T16:19:37.318Z,26.05
2018-08-18T16:22:13.127Z,26.08
2018-08-18T16:24:49.057Z,25.96
2018-08-18T16:27:24.884Z,26.01
2018-08-18T16:30:00.783Z,26.06
2018-08-18T16:32:36.820Z,26.07
2018-08-18T16:35:12.827Z,26.11
2018-08-18T16:37:48.766Z,26.15
2018-08-18T16:40:24.798Z,26.15
2018-08-18T16:43:02.341Z,26.22
2018-08-18T16:45:38.973Z,26.16
2018-08-18T16:48:15.230Z,25.94
2018-08-18T16:50:51.262Z,25.91
2018-08-18T16:53:27.105Z,25.86
2018-08-18T16:56:03.145Z,25.83
2018-08-18T16:58:41.427Z,25.79
2018-08-18T17:01:17.847Z,25.75
2018-08-18T17:03:53.919Z,25.66
2018-08-18T17:06:29.688Z,25.55
2018-08-18T17:09:06.140Z,25.51
2018-08-18T17:11:41.991Z,25.41
2018-08-18T17:14:20.727Z,25.34
2018-08-18T17:16:56.727Z,25.28
2018-08-18T17:19:32.571Z,25.23
2018-08-18T17:22:09.762Z,25.19
2018-08-18T17:24:45.824Z,25.11
2018-08-18T17:27:21.668Z,25.05
2018-08-18T17:29:57.699Z,24.87
2018-08-18T17:32:33.618Z,24.78
2018-08-18T17:35:09.619Z,24.70
2018-08-18T17:37:45.439Z,24.63
2018-08-18T17:40:21.423Z,24.59
2018-08-18T17:42:57.263Z,24.50
2018-08-18T17:45:40.581Z,24.46
2018-08-18T17:48:16.432Z,24.39
2018-08-18T17:50:52.977Z,24.33
2018-08-18T17:53:29.046Z,24.21
2018-08-18T17:56:05.280Z,24.16
2018-08-18T17:58:41.447Z,24.07
2018-08-18T18:01:17.223Z,24.04
2018-08-18T18:03:53.199Z,23.95
2018-08-18T18:06:29.301Z,23.96
2018-08-18T18:09:05.604Z,24.04
2018-08-18T18:11:41.438Z,23.96
2018-08-18T18:14:17.498Z,23.87
2018-08-18T18:16:53.638Z,23.82
2018-08-18T18:19:29.557Z,23.74
2018-08-18T18:22:05.675Z,23.64
2018-08-18T18:24:43.715Z,23.54
2018-08-18T18:27:19.804Z,23.54
2018-08-18T18:29:55.660Z,23.49
2018-08-18T18:32:31.485Z,23.41
2018-08-18T18:35:07.629Z,23.34
2018-08-18T18:37:43.573Z,23.31
2018-08-18T18:40:19.642Z,23.26
2018-08-18T18:42:55.420Z,23.18
2018-08-18T18:45:32.214Z,23.16
2018-08-18T18:48:11.318Z,23.13
2018-08-18T18:50:49.190Z,23.03
2018-08-18T18:53:26.681Z,22.99
2018-08-18T18:56:02.443Z,22.93
2018-08-18T18:58:38.380Z,22.86
2018-08-18T19:01:18.796Z,22.81
2018-08-18T19:03:54.772Z,22.77
2018-08-18T19:06:31.034Z,22.71
2018-08-18T19:09:07.246Z,22.65
2018-08-18T19:11:43.543Z,22.56
2018-08-18T19:14:23.797Z,22.45
2018-08-18T19:16:59.915Z,22.41
2018-08-18T19:19:35.972Z,22.30
2018-08-18T19:22:12.132Z,22.21
2018-08-18T19:24:48.428Z,22.15
2018-08-18T19:27:24.302Z,22.09
2018-08-18T19:30:00.296Z,22.03
2018-08-18T19:33:39.091Z,21.99
2018-08-18T19:36:15.070Z,21.94
2018-08-18T19:38:51.092Z,21.85
2018-08-18T19:41:26.988Z,21.81
2018-08-18T19:44:03.040Z,21.77
2018-08-18T19:46:38.877Z,21.67
2018-08-18T19:49:26.249Z,21.57
2018-08-18T19:52:06.083Z,21.52
2018-08-18T19:54:45.221Z,21.43
2018-08-18T19:57:27.728Z,21.39
2018-08-18T20:00:11.321Z,21.31
2018-08-18T20:03:10.707Z,21.24
2018-08-18T20:05:47.278Z,21.19
2018-08-18T20:08:24.392Z,21.14
2018-08-18T20:11:02.016Z,21.11
2018-08-18T20:13:37.852Z,21.07
2018-08-18T20:16:13.801Z,21.01
2018-08-18T20:18:49.717Z,20.99
2018-08-18T20:21:25.706Z,20.95
2018-08-18T20:24:01.763Z,20.92
2018-08-18T20:26:37.677Z,20.88
2018-08-18T20:29:13.628Z,20.84
2018-08-18T20:32:02.545Z,20.78
2018-08-18T20:34:38.503Z,20.73
2018-08-18T20:37:14.464Z,20.70
2018-08-18T20:39:50.547Z,20.67
2018-08-18T20:42:31.646Z,20.63
2018-08-18T20:45:08.047Z,20.58
2018-08-18T20:47:45.567Z,20.56
2018-08-18T20:50:21.681Z,20.54
2018-08-18T20:53:07.963Z,20.49
2018-08-18T20:55:46.331Z,20.45
2018-08-18T20:58:22.558Z,20.41
2018-08-18T21:00:58.704Z,20.38
2018-08-18T21:03:49.794Z,20.40
2018-08-18T21:06:25.843Z,20.36
2018-08-18T21:09:04.815Z,20.33
2018-08-18T21:11:41.456Z,20.28
2018-08-18T21:14:17.397Z,20.23
2018-08-18T21:16:54.839Z,20.20
2018-08-18T21:19:31.978Z,20.19
2018-08-18T21:25:17.540Z,20.06
2018-08-18T21:27:53.852Z,20.00
2018-08-18T21:30:29.786Z,19.97
2018-08-18T21:33:06.262Z,19.94
2018-08-18T21:35:42.459Z,19.90
2018-08-18T21:38:18.529Z,19.89
2018-08-18T21:40:55.854Z,19.85
2018-08-18T21:43:34.423Z,19.80
2018-08-18T21:46:10.376Z,19.73
2018-08-18T21:48:55.438Z,19.67
2018-08-18T21:51:31.550Z,19.67
2018-08-18T21:54:07.900Z,19.64
2018-08-18T21:56:44.048Z,19.59
2018-08-18T21:59:20.260Z,19.55
2018-08-18T22:01:58.585Z,19.51
2018-08-18T22:04:34.853Z,19.49
2018-08-18T22:07:10.953Z,19.46
2018-08-18T22:09:47.078Z,19.44
2018-08-18T22:12:23.261Z,19.42
2018-08-18T22:15:01.145Z,19.37
2018-08-18T22:17:37.043Z,19.34
2018-08-18T22:20:13.300Z,19.33
2018-08-18T22:22:49.462Z,19.25
2018-08-18T22:25:25.481Z,19.23
2018-08-18T22:28:01.807Z,19.19
2018-08-18T22:30:37.884Z,19.19
2018-08-18T22:33:14.146Z,19.16
2018-08-18T22:35:54.219Z,19.13
2018-08-18T22:38:32.889Z,19.14
2018-08-18T22:41:09.571Z,19.11
2018-08-18T22:43:47.221Z,19.06
2018-08-18T22:46:23.694Z,19.02
2018-08-18T22:49:00.001Z,18.97
2018-08-18T22:51:36.359Z,18.90
2018-08-18T22:54:13.298Z,18.86
2018-08-18T22:56:54.608Z,18.82
2018-08-18T22:59:31.220Z,18.82
2018-08-18T23:02:09.660Z,18.82
2018-08-18T23:04:46.205Z,18.79
2018-08-18T23:07:22.755Z,18.78
2018-08-18T23:10:00.526Z,18.75
2018-08-18T23:12:36.918Z,18.73
2018-08-18T23:15:15.409Z,18.70
2018-08-18T23:17:52.824Z,18.71
2018-08-18T23:20:30.341Z,18.69
2018-08-18T23:23:06.425Z,18.65
2018-08-18T23:25:42.986Z,18.60
2018-08-18T23:28:20.101Z,18.55
2018-08-18T23:30:57.938Z,18.52
2018-08-18T23:33:34.746Z,18.48
2018-08-18T23:36:11.577Z,18.47
2018-08-18T23:38:53.877Z,18.42
2018-08-18T23:41:30.256Z,18.40
2018-08-18T23:44:07.301Z,18.37
2018-08-18T23:46:46.432Z,18.35
2018-08-18T23:49:22.372Z,18.31
2018-08-18T23:52:00.388Z,18.28
2018-08-18T23:54:36.315Z,18.26
2018-08-18T23:57:13.793Z,18.28
2018-08-18T23:59:51.615Z,18.31
